createdAt,value
2023-02-13T00:02:57.418Z,456.38
2023-02-13T00:06:05.851Z,476.39
2023-02-13T00:09:12.853Z,477.62
2023-02-13T00:12:18.665Z,483.69
2023-02-13T00:15:25.406Z,494.71
2023-02-13T00:18:37.962Z,489.73
2023-02-13T00:21:47.203Z,492.91
2023-02-13T00:24:53.219Z,496.59
2023-02-13T00:28:00.200Z,490.75
2023-02-13T00:31:09.588Z,486.90
2023-02-13T00:34:16.182Z,478.76
2023-02-13T00:37:24.563Z,483.59
2023-02-13T00:40:32.078Z,479.04
2023-02-13T00:43:39.355Z,466.83
2023-02-13T00:46:45.974Z,462.93
2023-02-13T00:49:51.916Z,455.65
2023-02-13T00:53:01.059Z,445.27
2023-02-13T00:56:09.323Z,430.43
2023-02-13T00:59:17.750Z,437.61
2023-02-13T01:02:23.545Z,443.33
2023-02-13T01:05:30.887Z,439.26
2023-02-13T01:08:43.632Z,445.82
2023-02-13T01:11:50.235Z,443.69
2023-02-13T01:14:57.506Z,442.37
2023-02-13T01:18:04.311Z,447.51
2023-02-13T01:21:18.292Z,439.42
2023-02-13T01:24:30.169Z,448.37
2023-02-13T01:27:39.176Z,447.52
2023-02-13T01:30:45.764Z,430.67
2023-02-13T01:33:51.782Z,424.20
2023-02-13T01:37:01.566Z,420.93
2023-02-13T01:40:13.846Z,424.24
2023-02-13T01:43:23.619Z,419.73
2023-02-13T01:46:39.993Z,434.34
2023-02-13T01:49:51.889Z,434.85
2023-02-13T01:53:08.180Z,426.15
2023-02-13T01:56:28.633Z,414.50
2023-02-13T01:59:47.876Z,406.72
2023-02-13T02:03:08.025Z,405.64
2023-02-13T02:06:21.685Z,415.93
2023-02-13T02:09:37.015Z,409.34
2023-02-13T02:12:52.968Z,408.96
2023-02-13T02:16:00.560Z,398.64
2023-02-13T02:19:17.434Z,395.26
2023-02-13T02:23:17.278Z,366.81
2023-02-13T02:27:02.773Z,363.64
2023-02-13T02:31:03.269Z,346.76
2023-02-13T02:34:32.331Z,342.91
2023-02-13T02:38:06.285Z,340.50
2023-02-13T02:41:45.262Z,329.00
2023-02-13T02:45:12.045Z,321.68
2023-02-13T02:48:46.389Z,331.63
2023-02-13T02:52:08.544Z,327.74
2023-02-13T02:55:32.286Z,317.72
2023-02-13T02:59:02.033Z,305.80
2023-02-13T03:02:27.566Z,273.24
2023-02-13T03:05:55.219Z,260.65
2023-02-13T03:09:25.990Z,253.62
2023-02-13T03:12:55.791Z,256.55
2023-02-13T03:16:16.641Z,248.24
2023-02-13T03:19:57.028Z,245.94
2023-02-13T03:23:25.342Z,241.79
2023-02-13T03:27:00.912Z,237.30
2023-02-13T03:30:23.004Z,229.34
2023-02-13T03:34:03.184Z,222.65
2023-02-13T03:37:31.346Z,213.01
2023-02-13T03:41:02.552Z,214.93
2023-02-13T03:44:23.544Z,219.27
2023-02-13T03:47:30.306Z,219.21
2023-02-13T03:50:33.896Z,223.10
2023-02-13T03:53:45.289Z,223.27
2023-02-13T03:57:08.898Z,219.32
2023-02-13T04:00:22.835Z,218.70
2023-02-13T04:03:38.750Z,213.18
2023-02-13T04:06:57.192Z,220.77
2023-02-13T04:10:10.306Z,216.92
2023-02-13T04:13:30.256Z,214.66
2023-02-13T04:16:45.640Z,222.28
2023-02-13T04:19:52.701Z,212.93
2023-02-13T04:22:58.618Z,222.86
2023-02-13T04:26:13.819Z,217.71
2023-02-13T04:29:19.688Z,215.64
2023-02-13T04:32:29.186Z,217.05
2023-02-13T04:35:35.596Z,217.63
2023-02-13T04:38:42.334Z,221.22
2023-02-13T04:41:48.138Z,227.12
2023-02-13T04:44:54.752Z,230.77
2023-02-13T04:48:03.326Z,238.31
2023-02-13T04:51:10.241Z,235.08
2023-02-13T04:54:16.170Z,229.41
2023-02-13T04:57:22.708Z,233.79
2023-02-13T05:00:33.013Z,229.79
2023-02-13T05:03:42.598Z,227.61
2023-02-13T05:06:48.483Z,220.41
2023-02-13T05:09:55.007Z,219.12
2023-02-13T05:13:01.126Z,223.08
2023-02-13T05:16:09.055Z,222.70
2023-02-13T05:19:17.474Z,219.76
2023-02-13T05:22:36.309Z,218.38
2023-02-13T05:25:45.158Z,214.38
2023-02-13T05:29:04.114Z,208.01
2023-02-13T05:32:10.038Z,201.95
2023-02-13T05:35:19.481Z,201.05
2023-02-13T05:38:25.277Z,198.64
2023-02-13T05:41:31.891Z,205.78
2023-02-13T05:44:37.737Z,219.16
2023-02-13T05:47:44.333Z,227.57
2023-02-13T05:50:52.794Z,235.74
2023-02-13T05:53:59.303Z,221.99
2023-02-13T05:57:05.100Z,214.97
2023-02-13T06:00:13.498Z,216.17
2023-02-13T06:03:19.375Z,225.65
2023-02-13T06:06:28.764Z,221.81
2023-02-13T06:09:34.512Z,245.12
2023-02-13T06:12:41.020Z,272.42
2023-02-13T06:15:47.249Z,296.05
2023-02-13T06:18:54.170Z,284.85
2023-02-13T06:22:02.526Z,277.04
2023-02-13T06:25:09.984Z,273.54
2023-02-13T06:28:15.759Z,273.34
2023-02-13T06:31:22.610Z,276.72
2023-02-13T06:34:28.472Z,259.34
2023-02-13T06:37:39.372Z,259.97
2023-02-13T06:40:45.170Z,266.59
2023-02-13T06:43:51.697Z,301.98
2023-02-13T06:46:57.569Z,328.22
2023-02-13T06:50:04.258Z,329.26
2023-02-13T06:53:12.889Z,330.05
2023-02-13T06:56:19.802Z,325.37
2023-02-13T06:59:25.715Z,331.08
2023-02-13T07:02:32.317Z,330.42
2023-02-13T07:05:38.098Z,329.59
2023-02-13T07:08:47.248Z,329.21
2023-02-13T07:11:53.756Z,321.91
2023-02-13T07:15:02.676Z,321.65
2023-02-13T07:18:10.017Z,325.17
2023-02-13T07:21:16.656Z,320.08
2023-02-13T07:24:25.104Z,301.09
2023-02-13T07:27:32.100Z,298.32
2023-02-13T07:30:38.725Z,323.67
2023-02-13T07:33:45.421Z,304.76
2023-02-13T07:36:51.525Z,272.80
2023-02-13T07:40:00.877Z,270.33
2023-02-13T07:43:06.694Z,261.51
2023-02-13T07:46:14.055Z,310.90
2023-02-13T07:49:19.844Z,300.66
2023-02-13T07:52:26.416Z,266.04
2023-02-13T07:55:35.545Z,242.98
2023-02-13T07:58:44.662Z,259.17
2023-02-13T08:01:50.601Z,261.09
2023-02-13T08:04:57.183Z,249.48
2023-02-13T08:08:03.077Z,230.12
2023-02-13T08:11:43.712Z,215.63
2023-02-13T08:14:49.507Z,187.93
2023-02-13T08:17:56.119Z,190.94
2023-02-13T08:21:01.869Z,204.42
2023-02-13T08:24:09.802Z,217.93
2023-02-13T08:27:19.682Z,263.44
2023-02-13T08:30:26.737Z,267.83
2023-02-13T08:33:33.757Z,250.50
2023-02-13T08:36:40.606Z,260.95
2023-02-13T08:39:47.186Z,283.60
2023-02-13T08:42:57.729Z,278.34
2023-02-13T08:46:04.258Z,274.69
2023-02-13T08:49:11.187Z,281.99
2023-02-13T08:52:16.998Z,291.91
2023-02-13T08:55:23.828Z,293.97
2023-02-13T08:58:32.519Z,291.27
2023-02-13T09:01:40.100Z,266.87
2023-02-13T09:04:45.960Z,245.34
2023-02-13T09:07:54.900Z,245.99
2023-02-13T09:11:07.025Z,248.24
2023-02-13T09:14:16.817Z,280.19
2023-02-13T09:17:23.438Z,277.64
2023-02-13T09:20:30.765Z,265.62
2023-02-13T09:23:40.056Z,225.36
2023-02-13T09:26:46.703Z,232.66
2023-02-13T09:29:55.777Z,227.86
2023-02-13T09:33:02.476Z,207.67
2023-02-13T09:36:11.439Z,220.69
2023-02-13T09:39:18.060Z,206.40
2023-02-13T09:42:31.789Z,201.44
2023-02-13T09:45:42.797Z,188.02
2023-02-13T09:48:54.879Z,200.14
2023-02-13T09:52:02.498Z,182.13
2023-02-13T09:55:20.470Z,158.47
2023-02-13T09:58:44.799Z,163.16
2023-02-13T10:02:01.606Z,175.48
2023-02-13T10:05:26.494Z,182.35
2023-02-13T10:08:58.088Z,197.90
2023-02-13T10:12:29.429Z,218.24
2023-02-13T10:15:49.862Z,228.80
2023-02-13T10:19:07.628Z,216.67
2023-02-13T10:22:21.206Z,235.39
2023-02-13T10:25:34.000Z,234.11
2023-02-13T10:29:08.386Z,241.41
2023-02-13T10:32:26.356Z,258.64
2023-02-13T10:35:37.021Z,292.16
2023-02-13T10:38:55.191Z,261.92
2023-02-13T10:42:23.055Z,249.68
2023-02-13T10:45:54.250Z,247.48
2023-02-13T10:49:47.937Z,227.61
2023-02-13T10:53:17.477Z,219.07
2023-02-13T10:56:37.335Z,284.31
2023-02-13T11:00:09.367Z,219.71
2023-02-13T11:03:23.616Z,223.52
2023-02-13T11:06:31.908Z,221.61
2023-02-13T11:09:48.858Z,220.79
2023-02-13T11:12:57.573Z,224.61
2023-02-13T11:16:08.102Z,239.14
2023-02-13T11:19:25.602Z,400.41
2023-02-13T11:22:37.664Z,275.57
2023-02-13T11:26:02.232Z,201.24
2023-02-13T11:29:21.644Z,237.54
2023-02-13T11:32:30.715Z,255.31
2023-02-13T11:35:39.237Z,227.31
2023-02-13T11:38:46.348Z,195.78
2023-02-13T11:41:55.200Z,289.64
2023-02-13T11:45:09.982Z,304.47
2023-02-13T11:48:25.904Z,242.89
2023-02-13T11:51:46.073Z,236.65
2023-02-13T11:55:03.362Z,244.24
2023-02-13T11:58:31.484Z,251.02
2023-02-13T12:01:37.417Z,282.80
2023-02-13T12:04:44.743Z,236.73
2023-02-13T12:07:52.960Z,212.52
2023-02-13T12:11:03.689Z,192.63
2023-02-13T12:14:21.327Z,173.43
2023-02-13T12:17:34.051Z,159.24
2023-02-13T12:20:57.282Z,132.00
2023-02-13T12:24:22.573Z,343.14
2023-02-13T12:27:44.946Z,508.14
2023-02-13T12:31:28.405Z,841.76
2023-02-13T12:35:07.968Z,683.19
2023-02-13T12:38:38.204Z,592.64
2023-02-13T12:42:09.589Z,989.14
2023-02-13T12:45:36.498Z,633.23
2023-02-13T12:49:04.751Z,385.91
2023-02-13T12:52:36.402Z,215.27
2023-02-13T12:56:10.164Z,197.32
2023-02-13T12:59:33.337Z,176.95
2023-02-13T13:03:19.143Z,185.14
2023-02-13T13:07:00.820Z,190.84
2023-02-13T13:10:42.177Z,186.73
2023-02-13T13:14:07.165Z,221.14
2023-02-13T13:17:42.654Z,678.54
2023-02-13T13:21:30.741Z,446.52
2023-02-13T13:25:00.134Z,871.06
2023-02-13T13:28:19.897Z,475.62
2023-02-13T13:31:31.143Z,286.83
2023-02-13T13:34:42.439Z,217.51
2023-02-13T13:38:06.741Z,427.81
2023-02-13T13:41:34.610Z,515.21
2023-02-13T13:45:04.804Z,447.15
2023-02-13T13:48:59.170Z,323.34
2023-02-13T13:52:26.960Z,1686.07
2023-02-13T13:56:06.035Z,2074.00
2023-02-13T13:59:21.323Z,1253.82
2023-02-13T14:02:48.122Z,1009.80
2023-02-13T14:06:16.632Z,1077.70
2023-02-13T14:09:43.998Z,970.46
2023-02-13T14:12:51.862Z,354.17
2023-02-13T14:16:01.716Z,663.89
2023-02-13T14:19:24.193Z,419.41
2023-02-13T14:22:41.614Z,227.82
2023-02-13T14:25:48.462Z,542.04
2023-02-13T14:29:31.140Z,374.48
2023-02-13T14:32:42.691Z,392.59
2023-02-13T14:36:03.729Z,458.34
2023-02-13T14:39:24.121Z,477.26
2023-02-13T14:42:34.778Z,598.18
2023-02-13T14:45:55.790Z,411.55
2023-02-13T14:49:18.622Z,394.34
2023-02-13T14:52:33.182Z,529.25
2023-02-13T14:55:48.264Z,515.86
2023-02-13T14:59:04.216Z,189.27
2023-02-13T15:02:26.652Z,290.02
2023-02-13T15:05:39.033Z,408.57
2023-02-13T15:08:54.774Z,262.39
2023-02-13T15:12:03.570Z,766.03
2023-02-13T15:15:28.971Z,411.93
2023-02-13T15:18:44.559Z,601.94
2023-02-13T15:22:00.071Z,450.50
2023-02-13T15:25:10.205Z,343.99
2023-02-13T15:28:24.748Z,400.79
2023-02-13T15:31:38.374Z,264.42
2023-02-13T15:34:51.125Z,207.57
2023-02-13T15:38:00.530Z,161.79
2023-02-13T15:41:14.305Z,133.98
2023-02-13T15:44:25.469Z,111.94
2023-02-13T15:47:36.641Z,96.67
2023-02-13T15:50:47.772Z,115.11
2023-02-13T15:54:00.315Z,104.49
2023-02-13T15:57:09.991Z,158.81
2023-02-13T16:00:29.133Z,139.95
2023-02-13T16:03:38.238Z,114.76
2023-02-13T16:06:48.477Z,108.35
2023-02-13T16:10:28.554Z,126.67
2023-02-13T16:13:35.450Z,203.91
2023-02-13T16:16:55.191Z,258.68
2023-02-13T16:20:08.261Z,569.05
2023-02-13T16:23:25.388Z,786.13
2023-02-13T16:26:39.343Z,307.50
2023-02-13T16:29:56.555Z,205.84
2023-02-13T16:33:26.792Z,146.93
2023-02-13T16:36:33.472Z,152.63
2023-02-13T16:39:40.117Z,134.50
2023-02-13T16:42:48.582Z,135.33
2023-02-13T16:45:55.303Z,111.27
2023-02-13T16:49:23.765Z,113.67
2023-02-13T16:52:30.478Z,115.36
2023-02-13T16:55:36.836Z,120.87
2023-02-13T16:58:46.097Z,137.95
2023-02-13T17:02:19.367Z,151.68
2023-02-13T17:05:29.491Z,153.88
2023-02-13T17:08:35.491Z,168.20
2023-02-13T17:11:42.905Z,206.76
2023-02-13T17:14:51.495Z,169.58
2023-02-13T17:17:59.035Z,150.76
2023-02-13T17:21:04.876Z,130.40
2023-02-13T17:24:20.845Z,124.63
2023-02-13T17:27:26.711Z,122.89
2023-02-13T17:30:38.215Z,118.82
2023-02-13T17:33:45.447Z,137.46
2023-02-13T17:36:52.137Z,144.63
2023-02-13T17:39:58.604Z,167.37
2023-02-13T17:43:06.303Z,191.01
2023-02-13T17:46:15.434Z,183.29
2023-02-13T17:49:22.176Z,152.34
2023-02-13T17:52:33.586Z,139.81
2023-02-13T17:55:41.424Z,136.73
2023-02-13T17:58:47.550Z,140.50
2023-02-13T18:01:59.337Z,161.12
2023-02-13T18:05:06.752Z,155.32
2023-02-13T18:08:13.732Z,159.63
2023-02-13T18:11:19.586Z,146.64
2023-02-13T18:14:26.123Z,159.11
2023-02-13T18:17:35.059Z,291.50
2023-02-13T18:20:41.965Z,454.25
2023-02-13T18:23:47.997Z,423.13
2023-02-13T18:26:56.078Z,298.62
2023-02-13T18:30:02.489Z,199.88
2023-02-13T18:33:11.802Z,200.57
2023-02-13T18:36:20.292Z,227.03
2023-02-13T18:39:26.916Z,461.51
2023-02-13T18:42:33.836Z,325.72
2023-02-13T18:45:40.823Z,286.09
2023-02-13T18:48:49.345Z,267.21
2023-02-13T18:51:56.370Z,290.09
2023-02-13T18:55:02.653Z,241.23
2023-02-13T18:58:09.496Z,222.57
2023-02-13T19:01:19.810Z,231.62
2023-02-13T19:04:32.041Z,185.35
2023-02-13T19:07:38.179Z,220.01
2023-02-13T19:10:47.944Z,486.07
2023-02-13T19:14:00.609Z,532.92
2023-02-13T19:17:08.830Z,632.69
2023-02-13T19:20:17.777Z,522.81
2023-02-13T19:23:24.390Z,249.02
2023-02-13T19:26:31.149Z,267.80
2023-02-13T19:29:38.260Z,249.33
2023-02-13T19:32:44.602Z,330.62
2023-02-13T19:36:05.217Z,307.55
2023-02-13T19:39:11.434Z,302.93
2023-02-13T19:42:18.078Z,372.39
2023-02-13T19:45:24.057Z,367.98
2023-02-13T19:48:30.786Z,332.93
2023-02-13T19:51:42.353Z,263.16
2023-02-13T19:54:49.200Z,279.32
2023-02-13T19:57:55.197Z,292.81
2023-02-13T20:01:11.489Z,318.45
2023-02-13T20:04:17.625Z,308.09
2023-02-13T20:07:26.989Z,279.92
2023-02-13T20:10:33.207Z,225.33
2023-02-13T20:13:41.062Z,259.34
2023-02-13T20:16:47.942Z,333.01
2023-02-13T20:19:54.661Z,355.72
2023-02-13T20:23:03.080Z,395.56
2023-02-13T20:26:14.056Z,257.91
2023-02-13T20:29:19.994Z,234.81
2023-02-13T20:32:27.206Z,200.50
2023-02-13T20:35:33.031Z,198.88
2023-02-13T20:38:47.547Z,200.35
2023-02-13T20:41:53.769Z,221.73
2023-02-13T20:45:00.834Z,219.11
2023-02-13T20:48:06.887Z,269.44
2023-02-13T20:51:18.551Z,284.28
2023-02-13T20:54:26.933Z,285.43
2023-02-13T20:57:36.517Z,289.75
2023-02-13T21:00:45.162Z,281.00
2023-02-13T21:03:56.393Z,246.30
2023-02-13T21:07:03.816Z,281.18
2023-02-13T21:10:14.526Z,279.72
2023-02-13T21:13:20.542Z,237.05
2023-02-13T21:16:30.171Z,242.91
2023-02-13T21:19:36.749Z,234.97
2023-02-13T21:22:43.555Z,233.68
2023-02-13T21:25:53.532Z,239.03
2023-02-13T21:29:02.082Z,223.87
2023-02-13T21:32:08.434Z,294.38
2023-02-13T21:35:15.452Z,218.20
2023-02-13T21:38:24.323Z,230.95
2023-02-13T21:41:34.033Z,238.34
2023-02-13T21:44:40.245Z,253.38
2023-02-13T21:47:47.321Z,291.97
2023-02-13T21:50:53.332Z,269.51
2023-02-13T21:54:01.293Z,273.36
2023-02-13T21:57:10.089Z,271.70
2023-02-13T22:00:19.120Z,279.64
2023-02-13T22:03:24.986Z,275.54
2023-02-13T22:06:37.376Z,284.34
2023-02-13T22:09:43.183Z,278.19
2023-02-13T22:12:57.440Z,262.79
2023-02-13T22:16:05.415Z,276.50
2023-02-13T22:19:16.769Z,287.35
2023-02-13T22:22:22.667Z,299.90
2023-02-13T22:25:29.264Z,300.41
2023-02-13T22:28:38.490Z,304.47
2023-02-13T22:31:46.693Z,301.84
2023-02-13T22:34:54.215Z,305.08
2023-02-13T22:38:02.091Z,302.24
2023-02-13T22:41:10.205Z,272.12
2023-02-13T22:44:19.443Z,282.25
2023-02-13T22:47:25.406Z,296.85
2023-02-13T22:50:32.201Z,295.65
2023-02-13T22:53:38.795Z,297.31
2023-02-13T22:56:45.456Z,278.61
2023-02-13T22:59:53.893Z,264.44
2023-02-13T23:03:00.388Z,251.01
2023-02-13T23:06:10.764Z,259.56
2023-02-13T23:09:17.682Z,246.02
2023-02-13T23:12:38.442Z,241.83
2023-02-13T23:15:51.810Z,241.50
2023-02-13T23:18:58.086Z,261.99
2023-02-13T23:22:04.840Z,277.86
2023-02-13T23:25:12.627Z,305.24
2023-02-13T23:28:19.349Z,250.35
2023-02-13T23:31:27.845Z,220.98
2023-02-13T23:34:34.554Z,212.90
2023-02-13T23:37:41.068Z,227.35
2023-02-13T23:40:47.782Z,224.19
2023-02-13T23:43:53.619Z,220.65
2023-02-13T23:47:02.904Z,222.22
2023-02-13T23:50:10.624Z,217.73
2023-02-13T23:53:17.384Z,221.16
2023-02-13T23:56:23.361Z,219.06
2023-02-13T23:59:30.118Z,219.80
